Time;durP1;ratioP1;P1;durP2;ratioP2;P2;SDS_P1;SDS_P2;PMS_P1;PMS_P2;Temp;Humidity;BMP_temperature;BMP_pressure;BME280_temperature;BME280_humidity;BME280_pressure;Samples;Min_cycle;Max_cycle;Signal;HPM_P1;HPM_P2
2023/12/24 00:00:30;;;;;;;0.80;0.40;;;22.70;42.70;;;;;;5020327;28;20584;-57
2023/12/24 00:02:57;;;;;;;3.88;0.80;;;22.70;42.80;;;;;;5023395;28;20064;-56
2023/12/24 00:05:24;;;;;;;2.15;0.73;;;22.70;42.70;;;;;;5023946;28;20521;-57
2023/12/24 00:07:51;;;;;;;2.38;0.77;;;22.70;42.70;;;;;;5025150;28;20057;-57
2023/12/24 00:10:18;;;;;;;1.35;0.52;;;22.70;42.70;;;;;;5022376;28;20045;-59
2023/12/24 00:12:46;;;;;;;1.55;0.60;;;22.70;42.70;;;;;;5024210;28;20528;-60
2023/12/24 00:15:16;;;;;;;1.70;0.70;;;22.70;42.60;;;;;;5021175;28;20058;-60
2023/12/24 00:17:43;;;;;;;1.73;0.77;;;22.70;42.50;;;;;;5029101;28;20501;-59
2023/12/24 00:20:11;;;;;;;1.35;0.70;;;22.70;42.60;;;;;;5023508;28;20045;-60
2023/12/24 00:22:38;;;;;;;2.13;0.73;;;22.60;42.60;;;;;;5030672;28;20504;-60
2023/12/24 00:25:06;;;;;;;1.95;0.57;;;22.60;42.60;;;;;;5020178;28;20049;-60
2023/12/24 00:27:33;;;;;;;1.23;0.50;;;22.60;42.60;;;;;;5015192;28;20360;-58
2023/12/24 00:30:00;;;;;;;0.70;0.43;;;22.60;42.60;;;;;;5029529;28;20041;-59
2023/12/24 00:32:29;;;;;;;0.98;0.40;;;22.60;43.10;;;;;;5027474;28;20064;-59
2023/12/24 00:34:56;;;;;;;1.42;0.70;;;22.50;42.50;;;;;;5026377;28;20417;-60
2023/12/24 00:37:23;;;;;;;0.90;0.40;;;22.50;42.50;;;;;;5029732;28;20056;-55
2023/12/24 00:39:51;;;;;;;0.50;0.30;;;22.50;42.60;;;;;;5027952;28;20057;-55
2023/12/24 00:42:18;;;;;;;0.63;0.28;;;22.50;42.60;;;;;;5030775;28;20369;-50
2023/12/24 00:44:45;;;;;;;1.27;0.47;;;22.50;42.50;;;;;;5023783;28;20045;-58
2023/12/24 00:47:12;;;;;;;0.88;0.30;;;22.50;42.50;;;;;;5029110;28;20049;-55
2023/12/24 00:49:41;;;;;;;0.85;0.40;;;22.40;42.50;;;;;;5026889;28;20057;-60
2023/12/24 00:52:08;;;;;;;1.23;0.40;;;22.40;42.40;;;;;;5028137;28;20046;-57
2023/12/24 00:54:36;;;;;;;1.77;0.40;;;22.40;42.50;;;;;;5026663;28;20049;-58
2023/12/24 00:57:03;;;;;;;0.22;0.22;;;22.40;42.60;;;;;;5026694;28;20058;-58
2023/12/24 00:59:30;;;;;;;0.98;0.30;;;22.40;43.10;;;;;;5026614;28;20485;-59
2023/12/24 01:01:58;;;;;;;1.05;0.40;;;22.30;42.60;;;;;;5028342;28;20053;-57
2023/12/24 01:04:25;;;;;;;0.60;0.30;;;22.30;42.70;;;;;;5026758;28;20057;-59
2023/12/24 01:06:53;;;;;;;0.73;0.30;;;22.40;42.80;;;;;;5027568;28;20068;-60
2023/12/24 01:09:20;;;;;;;0.38;0.30;;;22.40;42.80;;;;;;5028952;28;20045;-59
2023/12/24 01:11:48;;;;;;;0.73;0.38;;;22.40;42.90;;;;;;5024666;28;20543;-55
2023/12/24 01:14:15;;;;;;;0.60;0.22;;;22.50;42.90;;;;;;5024484;28;20045;-60
2023/12/24 01:16:43;;;;;;;0.50;0.25;;;22.50;42.90;;;;;;5025840;28;20425;-56
2023/12/24 01:19:10;;;;;;;0.68;0.40;;;22.60;42.90;;;;;;5024357;28;20053;-54
2023/12/24 01:21:37;;;;;;;0.30;0.13;;;22.60;42.80;;;;;;5029363;28;20383;-57
2023/12/24 01:24:06;;;;;;;0.68;0.28;;;22.60;42.80;;;;;;5025778;28;20064;-56
2023/12/24 01:26:35;;;;;;;1.10;0.28;;;22.70;42.70;;;;;;5024339;28;20053;-54
2023/12/24 01:29:02;;;;;;;0.40;0.10;;;22.70;42.70;;;;;;5026073;28;20402;-57
2023/12/24 01:31:29;;;;;;;0.73;0.22;;;22.70;42.60;;;;;;5023553;28;20064;-54
2023/12/24 01:33:56;;;;;;;0.30;0.20;;;22.70;42.60;;;;;;5016696;28;20493;-55
2023/12/24 01:36:24;;;;;;;0.20;0.20;;;22.70;42.60;;;;;;5027184;28;20056;-56
2023/12/24 01:38:51;;;;;;;0.35;0.30;;;22.70;42.50;;;;;;5026478;28;20072;-56
2023/12/24 01:41:19;;;;;;;0.20;0.20;;;22.70;42.50;;;;;;5029396;28;20379;-54
2023/12/24 01:43:47;;;;;;;0.22;0.10;;;22.80;42.50;;;;;;5026036;28;20065;-57
2023/12/24 01:46:19;;;;;;;0.20;0.10;;;22.70;42.40;;;;;;5024476;28;20541;-56
2023/12/24 01:48:48;;;;;;;0.38;0.10;;;22.70;42.20;;;;;;5029055;28;20052;-57
2023/12/24 01:51:16;;;;;;;0.10;0.10;;;22.70;42.40;;;;;;5027601;28;20057;-57
2023/12/24 01:53:44;;;;;;;0.25;0.10;;;22.70;42.40;;;;;;5025783;28;20084;-56
2023/12/24 01:56:12;;;;;;;0.32;0.10;;;22.70;42.30;;;;;;5025063;28;20057;-56
2023/12/24 01:58:40;;;;;;;0.28;0.10;;;22.70;42.30;;;;;;5019016;28;20054;-57
2023/12/24 02:01:08;;;;;;;0.10;0.10;;;22.70;42.30;;;;;;5023210;28;20057;-55
2023/12/24 02:03:35;;;;;;;0.70;0.10;;;22.70;42.30;;;;;;5030026;28;20053;-56
2023/12/24 02:06:04;;;;;;;0.20;0.10;;;22.70;42.40;;;;;;5024568;28;20099;-57
2023/12/24 02:08:31;;;;;;;1.02;0.20;;;22.60;42.20;;;;;;5028762;28;20056;-56
2023/12/24 02:10:59;;;;;;;0.10;0.10;;;22.60;42.30;;;;;;5025133;28;20052;-56
2023/12/24 02:13:27;;;;;;;0.20;0.10;;;22.60;42.20;;;;;;5024564;28;20060;-56
2023/12/24 02:15:58;;;;;;;0.30;0.10;;;22.50;42.20;;;;;;5022984;28;20049;-56
2023/12/24 02:18:25;;;;;;;0.35;0.10;;;22.50;42.00;;;;;;5027594;28;20053;-56
2023/12/24 02:20:53;;;;;;;0.00;0.00;;;22.50;42.20;;;;;;5029101;28;20052;-57
2023/12/24 02:23:21;;;;;;;0.25;0.05;;;22.50;42.20;;;;;;5027927;28;20048;-56
2023/12/24 02:25:51;;;;;;;0.17;0.00;;;22.50;42.70;;;;;;5026487;28;20065;-57
2023/12/24 02:28:23;;;;;;;0.10;0.08;;;22.50;42.20;;;;;;5022620;28;20053;-52
2023/12/24 02:30:55;;;;;;;0.28;0.00;;;22.40;42.10;;;;;;5025255;28;20041;-57
2023/12/24 02:33:25;;;;;;;0.08;0.08;;;22.40;42.30;;;;;;5028512;28;20057;-57
2023/12/24 02:35:54;;;;;;;0.00;0.00;;;22.40;42.40;;;;;;5024705;28;20054;-57
2023/12/24 02:38:23;;;;;;;0.10;0.10;;;22.40;42.50;;;;;;5023027;28;20049;-54
2023/12/24 02:40:50;;;;;;;0.00;0.00;;;22.50;42.60;;;;;;5029796;28;20416;-54
2023/12/24 02:43:17;;;;;;;0.00;0.00;;;22.50;42.60;;;;;;5023620;28;20062;-55
2023/12/24 02:45:45;;;;;;;0.15;0.00;;;22.60;42.70;;;;;;5027044;28;20544;-57
2023/12/24 02:48:12;;;;;;;0.10;0.10;;;22.60;42.50;;;;;;5029072;28;20818;-57
2023/12/24 02:50:39;;;;;;;0.13;0.10;;;22.70;42.50;;;;;;5022824;28;20057;-56
2023/12/24 02:53:06;;;;;;;0.10;0.05;;;22.70;42.50;;;;;;5028125;28;20057;-57
2023/12/24 02:55:35;;;;;;;0.15;0.00;;;22.80;42.40;;;;;;5026071;28;21172;-55
2023/12/24 02:58:02;;;;;;;0.10;0.10;;;22.80;42.30;;;;;;5023732;28;20058;-57
2023/12/24 03:00:30;;;;;;;0.85;0.10;;;22.80;42.30;;;;;;5024515;28;20065;-57
2023/12/24 03:03:15;;;;;;;0.05;0.05;;;22.80;42.20;;;;;;5021784;28;20054;-56
2023/12/24 03:05:42;;;;;;;10.32;0.28;;;22.80;41.60;;;;;;5002234;28;20430;-57
2023/12/24 03:08:10;;;;;;;1.35;0.10;;;22.80;42.20;;;;;;5003927;28;20050;-56
2023/12/24 03:10:38;;;;;;;1.17;0.20;;;22.80;42.00;;;;;;5004625;28;20053;-58
2023/12/24 03:13:05;;;;;;;22.08;0.70;;;22.80;42.00;;;;;;5005758;28;20682;-56
2023/12/24 03:15:33;;;;;;;8.68;0.45;;;22.80;41.90;;;;;;4999738;28;20065;-57
2023/12/24 03:18:00;;;;;;;4.45;0.40;;;22.80;41.90;;;;;;5003482;28;20379;-55
2023/12/24 03:20:27;;;;;;;4.47;0.30;;;22.80;41.80;;;;;;5008667;28;20069;-56
2023/12/24 03:22:54;;;;;;;1.70;0.30;;;22.80;41.90;;;;;;5007134;28;20046;-56
2023/12/24 03:25:24;;;;;;;0.52;0.10;;;22.80;41.90;;;;;;5004637;28;20064;-57
2023/12/24 03:27:53;;;;;;;2.08;0.10;;;22.80;41.80;;;;;;5009002;28;20370;-56
2023/12/24 03:30:20;;;;;;;6.45;0.28;;;22.80;41.70;;;;;;5005614;28;20053;-56
2023/12/24 03:32:47;;;;;;;0.73;0.05;;;22.70;41.80;;;;;;5006307;28;20053;-53
2023/12/24 03:35:15;;;;;;;0.20;0.10;;;22.70;41.80;;;;;;5005955;28;20054;-57
2023/12/24 03:37:42;;;;;;;0.00;0.00;;;22.70;41.80;;;;;;5001526;28;20054;-56
2023/12/24 03:40:10;;;;;;;0.20;0.00;;;22.70;41.80;;;;;;5008219;28;20045;-56
2023/12/24 03:42:37;;;;;;;0.00;0.00;;;22.60;41.80;;;;;;5007465;28;20414;-56
2023/12/24 03:45:07;;;;;;;1.75;0.03;;;22.60;41.80;;;;;;4966915;28;20060;-53
2023/12/24 03:47:35;;;;;;;0.10;0.10;;;22.60;41.70;;;;;;4959334;28;20058;-56
2023/12/24 03:50:02;;;;;;;0.03;0.00;;;22.60;41.80;;;;;;5006592;28;20437;-56
2023/12/24 03:52:31;;;;;;;1.02;0.10;;;22.60;41.80;;;;;;5006197;28;20514;-56
2023/12/24 03:58:21;;;;;;;0.20;0.10;;;22.50;41.30;;;;;;5011338;28;20045;-53
2023/12/24 04:00:49;;;;;;;0.00;0.00;;;22.50;42.00;;;;;;5009670;28;20062;-54
2023/12/24 04:03:16;;;;;;;0.00;0.00;;;22.50;41.90;;;;;;5012944;28;20052;-56
2023/12/24 04:05:44;;;;;;;0.35;0.05;;;22.40;41.90;;;;;;5008620;28;20061;-56
2023/12/24 04:08:11;;;;;;;0.10;0.10;;;22.40;41.90;;;;;;5009964;28;20050;-56
2023/12/24 04:10:39;;;;;;;0.73;0.08;;;22.40;42.00;;;;;;5012897;28;20054;-56
2023/12/24 04:13:07;;;;;;;0.00;0.00;;;22.40;42.00;;;;;;5009022;28;20054;-55
2023/12/24 04:15:34;;;;;;;0.57;0.10;;;22.40;42.20;;;;;;5012750;28;20057;-57
2023/12/24 04:18:03;;;;;;;0.15;0.10;;;22.40;42.30;;;;;;5008930;28;20064;-58
2023/12/24 04:20:30;;;;;;;0.57;0.15;;;22.40;42.30;;;;;;5008752;28;20060;-57
2023/12/24 04:22:57;;;;;;;0.40;0.10;;;22.50;42.40;;;;;;5007850;28;20054;-57
2023/12/24 04:25:25;;;;;;;0.95;0.10;;;22.60;42.40;;;;;;5006963;28;20410;-56
2023/12/24 04:27:52;;;;;;;0.50;0.10;;;22.60;42.40;;;;;;5007352;28;20062;-56
2023/12/24 04:30:19;;;;;;;1.27;0.20;;;22.70;42.40;;;;;;5005175;28;20479;-56
2023/12/24 04:32:46;;;;;;;0.40;0.15;;;22.70;42.30;;;;;;5007089;28;20057;-58
2023/12/24 04:35:15;;;;;;;0.80;0.10;;;22.80;42.30;;;;;;5007793;28;20054;-56
2023/12/24 04:37:42;;;;;;;0.47;0.10;;;22.80;42.20;;;;;;5012735;28;20054;-56
2023/12/24 04:40:11;;;;;;;14.30;0.45;;;22.80;42.20;;;;;;5006570;28;20062;-56
2023/12/24 04:42:38;;;;;;;0.10;0.00;;;22.90;42.20;;;;;;5005705;28;20062;-55
2023/12/24 04:45:06;;;;;;;0.63;0.00;;;22.90;42.20;;;;;;5005790;28;20053;-56
2023/12/24 04:47:33;;;;;;;0.20;0.00;;;22.90;42.10;;;;;;5008592;28;20053;-60
2023/12/24 04:50:00;;;;;;;0.47;0.10;;;22.90;42.00;;;;;;5008079;28;20058;-61
2023/12/24 04:52:35;;;;;;;0.10;0.10;;;22.90;42.00;;;;;;5005926;28;20054;-57
2023/12/24 04:55:03;;;;;;;0.00;0.00;;;22.90;41.90;;;;;;5005355;28;20057;-62
2023/12/24 04:57:30;;;;;;;1.55;0.22;;;22.90;42.00;;;;;;5008993;28;20065;-58
2023/12/24 04:59:57;;;;;;;0.22;0.00;;;22.90;42.00;;;;;;5007364;28;20407;-60
2023/12/24 05:02:25;;;;;;;3.08;0.10;;;23.00;42.00;;;;;;5005282;28;20050;-54
2023/12/24 05:04:54;;;;;;;4.90;0.20;;;22.90;42.00;;;;;;5003906;28;20058;-60
2023/12/24 05:07:21;;;;;;;1.38;0.13;;;22.90;41.90;;;;;;5006492;28;20061;-53
2023/12/24 05:09:51;;;;;;;0.63;0.08;;;22.90;41.90;;;;;;5007326;28;20050;-59
2023/12/24 05:12:19;;;;;;;0.00;0.00;;;22.90;41.80;;;;;;5005626;28;20050;-59
2023/12/24 05:14:46;;;;;;;3.95;0.20;;;22.90;41.90;;;;;;5013524;28;20056;-60
2023/12/24 05:17:13;;;;;;;1.52;0.10;;;22.80;41.90;;;;;;5005564;28;20069;-60
2023/12/24 05:19:40;;;;;;;1.65;0.17;;;22.80;41.90;;;;;;5005498;28;20058;-57
2023/12/24 05:22:08;;;;;;;0.80;0.30;;;22.80;41.90;;;;;;5011925;28;20077;-59
2023/12/24 05:24:35;;;;;;;3.58;0.15;;;22.80;42.00;;;;;;5002100;28;20065;-60
2023/12/24 05:27:04;;;;;;;8.57;0.55;;;22.80;42.00;;;;;;5001652;28;20438;-60
2023/12/24 05:29:31;;;;;;;1.40;0.10;;;22.80;42.10;;;;;;5004045;28;20490;-60
2023/12/24 05:31:59;;;;;;;15.27;0.40;;;22.70;42.10;;;;;;5004350;28;20050;-55
2023/12/24 05:34:26;;;;;;;35.45;11.90;;;22.70;42.10;;;;;;5003027;28;20058;-60
2023/12/24 05:36:53;;;;;;;44.22;25.98;;;22.70;42.10;;;;;;5003927;28;20402;-54
2023/12/24 05:39:20;;;;;;;29.20;18.23;;;22.70;42.00;;;;;;5002536;28;20050;-58
2023/12/24 05:41:48;;;;;;;12.07;7.70;;;22.70;42.00;;;;;;5003580;28;20413;-53
2023/12/24 05:44:16;;;;;;;7.65;5.07;;;22.60;42.00;;;;;;5001360;28;20514;-58
2023/12/24 05:46:43;;;;;;;7.75;4.45;;;22.60;42.00;;;;;;5001238;28;20069;-60
2023/12/24 05:49:11;;;;;;;5.45;3.83;;;22.60;42.10;;;;;;4998374;28;20061;-56
2023/12/24 05:51:38;;;;;;;7.60;3.20;;;22.60;42.10;;;;;;5001952;28;20512;-56
2023/12/24 05:54:05;;;;;;;4.38;3.00;;;22.50;42.10;;;;;;5002416;28;20060;-58
2023/12/24 05:56:33;;;;;;;5.65;2.90;;;22.60;42.20;;;;;;5003333;28;20054;-54
2023/12/24 05:59:00;;;;;;;6.22;3.22;;;22.50;42.10;;;;;;5004092;28;20364;-58
2023/12/24 06:01:28;;;;;;;4.82;3.03;;;22.50;42.20;;;;;;5002635;28;20517;-60
2023/12/24 06:03:56;;;;;;;3.42;2.75;;;22.50;42.20;;;;;;5001754;28;20069;-58
2023/12/24 06:06:23;;;;;;;3.75;2.60;;;22.50;42.40;;;;;;5002769;28;20061;-55
2023/12/24 06:08:50;;;;;;;8.10;4.10;;;22.50;42.40;;;;;;4999971;28;20050;-60
2023/12/24 06:11:18;;;;;;;12.90;7.63;;;22.60;42.40;;;;;;5003552;28;20405;-58
2023/12/24 06:13:45;;;;;;;8.50;5.25;;;22.60;42.40;;;;;;5009262;28;20109;-59
2023/12/24 06:16:13;;;;;;;9.77;5.40;;;22.60;42.40;;;;;;4999192;28;20514;-60
2023/12/24 06:18:42;;;;;;;13.55;5.22;;;22.70;42.40;;;;;;5002471;28;20507;-60
2023/12/24 06:21:10;;;;;;;11.15;3.88;;;22.70;42.30;;;;;;5001018;28;20414;-60
2023/12/24 06:23:37;;;;;;;6.15;3.20;;;22.80;42.40;;;;;;5002625;28;20616;-57
2023/12/24 06:26:05;;;;;;;7.20;3.00;;;22.80;42.40;;;;;;5000650;28;20534;-59
2023/12/24 06:28:31;;;;;;;8.18;2.67;;;22.90;42.40;;;;;;5004407;28;20050;-59
2023/12/24 06:30:59;;;;;;;4.13;2.75;;;23.00;42.40;;;;;;5001643;28;20049;-59
2023/12/24 06:33:27;;;;;;;5.35;2.63;;;23.00;42.30;;;;;;5003177;28;20080;-59
2023/12/24 06:35:55;;;;;;;4.07;2.35;;;23.00;42.20;;;;;;5001916;28;20061;-56
2023/12/24 06:38:22;;;;;;;2.83;1.80;;;23.10;42.10;;;;;;5001981;28;20482;-60
2023/12/24 06:40:50;;;;;;;4.97;2.10;;;23.10;42.20;;;;;;5002030;28;20061;-55
2023/12/24 06:43:17;;;;;;;5.50;2.20;;;23.10;42.10;;;;;;5000745;28;20414;-56
2023/12/24 06:45:44;;;;;;;5.55;2.10;;;23.10;42.10;;;;;;5004673;28;20054;-58
2023/12/24 06:48:12;;;;;;;15.77;7.95;;;23.20;42.00;;;;;;5003649;28;20050;-57
2023/12/24 06:50:39;;;;;;;12.27;6.28;;;23.10;41.90;;;;;;5000694;28;20057;-56
2023/12/24 06:53:07;;;;;;;9.05;5.30;;;23.20;42.00;;;;;;5001703;28;20054;-58
2023/12/24 06:55:35;;;;;;;9.38;5.00;;;23.20;41.90;;;;;;5000223;28;20049;-55
2023/12/24 06:58:03;;;;;;;7.82;3.45;;;23.10;41.90;;;;;;4998321;28;20073;-58
2023/12/24 07:00:30;;;;;;;6.93;4.05;;;23.10;41.80;;;;;;5002163;28;20085;-57
2023/12/24 07:02:57;;;;;;;10.15;3.13;;;23.10;41.90;;;;;;4999362;28;20049;-58
2023/12/24 07:05:25;;;;;;;6.82;3.22;;;23.10;41.80;;;;;;4996861;28;20050;-57
2023/12/24 07:07:52;;;;;;;5.85;3.13;;;23.10;41.80;;;;;;5002167;28;20049;-54
2023/12/24 07:10:20;;;;;;;4.47;2.90;;;23.00;41.80;;;;;;4998395;28;20085;-57
2023/12/24 07:12:48;;;;;;;7.10;2.00;;;23.10;41.80;;;;;;5001358;28;20050;-54
2023/12/24 07:15:15;;;;;;;8.55;2.30;;;23.00;41.80;;;;;;4998766;28;20049;-59
2023/12/24 07:17:42;;;;;;;7.93;1.95;;;23.00;41.80;;;;;;5001206;28;20054;-58
2023/12/24 07:20:11;;;;;;;6.00;2.30;;;23.00;41.80;;;;;;5004212;28;20057;-59
2023/12/24 07:22:38;;;;;;;12.23;1.95;;;23.00;41.80;;;;;;5005498;28;20050;-59
2023/12/24 07:25:06;;;;;;;4.05;1.75;;;23.00;41.80;;;;;;5005541;28;20050;-59
2023/12/24 07:27:35;;;;;;;8.77;1.80;;;23.00;41.80;;;;;;4998332;28;20055;-61
2023/12/24 07:30:03;;;;;;;4.85;1.52;;;22.90;41.70;;;;;;5006091;28;20062;-59
2023/12/24 07:32:30;;;;;;;4.53;1.45;;;22.90;41.80;;;;;;5003729;28;20050;-61
2023/12/24 07:34:57;;;;;;;3.38;1.40;;;22.90;41.90;;;;;;5006348;28;20422;-61
2023/12/24 07:37:25;;;;;;;4.00;1.38;;;22.90;42.00;;;;;;5005394;28;20262;-62
2023/12/24 07:39:52;;;;;;;3.72;1.20;;;22.90;42.00;;;;;;5003525;28;20061;-62
2023/12/24 07:42:19;;;;;;;5.38;1.30;;;23.00;42.00;;;;;;5006961;28;20050;-60
2023/12/24 07:44:48;;;;;;;6.63;1.10;;;23.00;41.90;;;;;;5007067;28;20061;-58
2023/12/24 07:47:15;;;;;;;1.92;1.20;;;23.10;41.90;;;;;;5005821;28;20065;-58
2023/12/24 07:49:42;;;;;;;1.38;0.90;;;23.10;41.80;;;;;;5006673;28;20073;-56
2023/12/24 07:52:10;;;;;;;1.85;0.95;;;23.10;41.80;;;;;;5002773;28;20061;-55
2023/12/24 07:54:37;;;;;;;2.13;1.20;;;23.20;41.80;;;;;;5000900;28;20057;-58
2023/12/24 07:57:05;;;;;;;0.90;0.75;;;23.20;41.70;;;;;;4999369;28;20054;-57
2023/12/24 07:59:32;;;;;;;0.93;0.70;;;23.20;41.60;;;;;;5000828;28;20053;-58
2023/12/24 08:02:01;;;;;;;1.58;0.73;;;23.20;41.50;;;;;;5006129;28;20061;-58
2023/12/24 08:04:28;;;;;;;1.10;0.80;;;23.20;41.50;;;;;;5002755;28;20744;-57
2023/12/24 08:06:55;;;;;;;1.42;0.65;;;23.30;41.60;;;;;;5004832;28;20521;-57
2023/12/24 08:09:22;;;;;;;0.80;0.60;;;23.30;41.50;;;;;;5003670;28;20054;-58
2023/12/24 08:11:50;;;;;;;0.80;0.40;;;23.20;41.50;;;;;;5004294;28;20518;-57
2023/12/24 08:14:17;;;;;;;0.80;0.50;;;23.20;41.50;;;;;;5002990;28;20057;-57
2023/12/24 08:16:44;;;;;;;0.77;0.30;;;23.20;41.40;;;;;;5006144;28;20061;-57
2023/12/24 08:19:13;;;;;;;6.32;0.88;;;23.20;41.40;;;;;;5006975;28;20050;-57
2023/12/24 08:21:40;;;;;;;10.38;1.05;;;23.20;41.40;;;;;;5002687;28;20061;-58
2023/12/24 08:24:08;;;;;;;6.90;0.70;;;23.20;41.70;;;;;;5006409;28;20058;-56
2023/12/24 08:26:36;;;;;;;4.75;0.70;;;23.20;41.70;;;;;;5007868;28;20053;-58
2023/12/24 08:29:03;;;;;;;4.40;0.80;;;23.20;41.70;;;;;;5008141;28;20054;-58
2023/12/24 08:31:30;;;;;;;1.80;0.50;;;23.10;41.70;;;;;;5009784;28;20050;-58
2023/12/24 08:33:57;;;;;;;3.60;0.50;;;23.10;41.60;;;;;;5009199;28;20052;-56
2023/12/24 08:36:26;;;;;;;5.85;0.50;;;23.10;41.60;;;;;;5011070;28;20045;-57
2023/12/24 08:38:53;;;;;;;2.88;0.32;;;23.00;41.80;;;;;;5010362;28;20056;-57
2023/12/24 08:41:20;;;;;;;5.55;0.57;;;23.10;41.70;;;;;;5009866;28;20057;-58
2023/12/24 08:43:48;;;;;;;100.00;53.60;;;23.00;41.60;;;;;;5009735;28;20413;-59
2023/12/24 08:46:17;;;;;;;110.43;62.00;;;23.00;41.70;;;;;;5009744;28;20054;-58
2023/12/24 08:48:44;;;;;;;39.47;23.73;;;23.00;41.70;;;;;;5006091;28;20059;-57
2023/12/24 08:51:12;;;;;;;22.20;13.75;;;23.00;41.70;;;;;;4998018;28;20499;-58
2023/12/24 08:53:41;;;;;;;19.38;10.80;;;23.00;41.70;;;;;;4998774;28;20051;-57
2023/12/24 08:56:09;;;;;;;19.27;8.70;;;22.90;41.70;;;;;;5002778;28;20060;-58
2023/12/24 08:58:36;;;;;;;15.00;8.10;;;22.90;41.70;;;;;;5001165;28;20064;-55
2023/12/24 09:01:04;;;;;;;16.75;6.63;;;22.80;41.70;;;;;;5000094;28;20053;-55
2023/12/24 09:03:31;;;;;;;22.63;6.82;;;22.80;41.80;;;;;;4995227;28;20403;-57
2023/12/24 09:05:59;;;;;;;14.15;8.07;;;22.80;41.80;;;;;;5003930;28;20530;-58
2023/12/24 09:08:27;;;;;;;9.68;5.70;;;22.80;41.80;;;;;;4997562;28;20054;-58
2023/12/24 09:10:56;;;;;;;18.55;6.57;;;22.80;41.90;;;;;;4994459;28;20107;-57
2023/12/24 09:13:23;;;;;;;8.77;5.20;;;22.90;41.90;;;;;;5001784;28;20042;-57
2023/12/24 09:15:50;;;;;;;8.07;4.50;;;22.90;41.90;;;;;;4999069;28;20397;-57
2023/12/24 09:18:18;;;;;;;11.02;4.00;;;23.00;41.90;;;;;;5000399;28;20053;-56
2023/12/24 09:20:46;;;;;;;9.43;3.97;;;23.00;41.80;;;;;;4997231;28;20062;-57
2023/12/24 09:23:13;;;;;;;4.80;3.10;;;23.00;41.70;;;;;;4998810;28;20045;-57
2023/12/24 09:25:41;;;;;;;10.13;3.42;;;23.10;41.70;;;;;;5000462;28;20076;-58
2023/12/24 09:28:09;;;;;;;5.70;3.00;;;23.10;41.70;;;;;;4998578;28;20070;-56
2023/12/24 09:30:37;;;;;;;4.30;2.80;;;23.10;41.60;;;;;;5003050;28;20054;-56
2023/12/24 09:33:05;;;;;;;5.03;2.90;;;23.10;41.60;;;;;;5001730;28;20058;-57
2023/12/24 09:35:32;;;;;;;3.70;2.00;;;23.20;41.60;;;;;;5001566;28;20513;-56
2023/12/24 09:38:00;;;;;;;10.63;2.28;;;23.20;41.60;;;;;;4997767;28;20054;-57
2023/12/24 09:40:28;;;;;;;2.95;1.95;;;23.20;41.60;;;;;;5000505;28;20063;-57
2023/12/24 09:42:56;;;;;;;2.60;1.70;;;23.20;41.60;;;;;;4999751;28;20418;-58
2023/12/24 09:45:24;;;;;;;4.05;1.60;;;23.20;41.50;;;;;;4996406;28;20050;-58
2023/12/24 09:47:52;;;;;;;3.28;1.73;;;23.20;41.50;;;;;;4997767;28;20065;-58
2023/12/24 09:50:19;;;;;;;4.18;1.70;;;23.20;41.50;;;;;;4997183;28;20065;-58
2023/12/24 09:52:49;;;;;;;3.10;1.13;;;23.20;41.50;;;;;;4999807;28;20062;-58
2023/12/24 09:55:17;;;;;;;1.95;1.55;;;23.20;41.50;;;;;;4998710;28;20052;-58
2023/12/24 09:57:45;;;;;;;2.72;1.52;;;23.20;41.50;;;;;;5000625;28;20050;-58
2023/12/24 10:00:15;;;;;;;1.77;1.35;;;23.10;41.50;;;;;;5003269;28;20053;-55
2023/12/24 10:02:46;;;;;;;1.73;1.20;;;23.10;41.40;;;;;;4999903;28;20422;-58
2023/12/24 10:05:14;;;;;;;2.15;1.27;;;23.10;41.40;;;;;;5000038;28;20042;-57
2023/12/24 10:07:45;;;;;;;2.00;1.02;;;23.10;41.50;;;;;;5001540;28;20053;-57
2023/12/24 10:10:13;;;;;;;1.13;0.98;;;23.10;41.50;;;;;;5000050;28;20057;-55
2023/12/24 10:12:42;;;;;;;1.92;1.05;;;23.00;41.50;;;;;;5001242;28;20061;-56
2023/12/24 10:15:10;;;;;;;1.35;0.60;;;23.00;41.50;;;;;;4996608;28;20049;-56
2023/12/24 10:17:38;;;;;;;1.45;1.00;;;23.00;41.50;;;;;;5005065;28;20057;-59
2023/12/24 10:20:09;;;;;;;1.98;0.90;;;23.00;41.50;;;;;;5002602;28;20058;-54
2023/12/24 10:22:36;;;;;;;0.77;0.60;;;23.00;41.50;;;;;;4997026;28;20057;-57
2023/12/24 10:25:06;;;;;;;0.80;0.70;;;22.90;41.50;;;;;;4995028;28;20046;-57
2023/12/24 10:27:34;;;;;;;0.68;0.43;;;22.90;41.50;;;;;;4994003;28;20415;-55
2023/12/24 10:30:20;;;;;;;0.45;0.45;;;22.90;41.60;;;;;;4997847;28;20483;-56
2023/12/24 10:32:47;;;;;;;0.75;0.43;;;22.80;41.10;;;;;;5002952;28;20525;-55
2023/12/24 10:35:22;;;;;;;0.65;0.50;;;22.80;42.10;;;;;;5001602;28;20097;-54
2023/12/24 10:37:49;;;;;;;1.40;0.60;;;22.80;41.40;;;;;;4996353;28;20479;-57
2023/12/24 10:40:17;;;;;;;0.52;0.40;;;22.80;41.60;;;;;;4997211;28;20400;-56
2023/12/24 10:42:44;;;;;;;0.95;0.52;;;22.70;41.60;;;;;;4999499;28;20168;-56
2023/12/24 10:45:12;;;;;;;0.73;0.50;;;22.70;41.60;;;;;;4995555;28;20050;-55
2023/12/24 10:47:40;;;;;;;0.82;0.50;;;22.70;41.70;;;;;;4996981;28;20650;-55
2023/12/24 10:50:11;;;;;;;0.40;0.30;;;22.70;41.70;;;;;;4999661;28;20065;-58
2023/12/24 10:52:40;;;;;;;3.65;0.40;;;22.70;41.70;;;;;;4991957;28;20077;-57
2023/12/24 10:55:09;;;;;;;0.20;0.20;;;22.60;41.70;;;;;;4996078;28;20057;-58
2023/12/24 10:57:53;;;;;;;0.35;0.32;;;22.60;41.70;;;;;;4998106;28;20133;-57
2023/12/24 11:00:22;;;;;;;0.30;0.20;;;22.60;41.60;;;;;;4999749;28;20057;-58
2023/12/24 11:02:50;;;;;;;0.57;0.20;;;22.60;41.90;;;;;;4997781;28;20053;-57
2023/12/24 11:05:50;;;;;;;0.50;0.30;;;22.60;41.90;;;;;;4995276;28;20054;-57
2023/12/24 11:08:32;;;;;;;0.35;0.30;;;22.60;41.50;;;;;;5000344;28;20049;-58
2023/12/24 14:17:54;;;;;;;0.45;0.15;;;22.60;41.70;;;;;;5635437;23;20399;-57
2023/12/24 14:20:22;;;;;;;0.57;0.20;;;22.50;41.90;;;;;;4964235;28;20047;-56
2023/12/24 14:22:49;;;;;;;0.32;0.25;;;22.50;41.90;;;;;;4958858;28;20496;-56
2023/12/24 14:25:18;;;;;;;0.38;0.20;;;22.50;41.90;;;;;;4967600;28;20057;-57
2023/12/24 14:27:46;;;;;;;0.50;0.20;;;22.40;41.90;;;;;;4962867;28;20055;-57
2023/12/24 14:30:15;;;;;;;1.13;0.30;;;22.50;42.00;;;;;;4957519;28;20051;-56
2023/12/24 14:32:42;;;;;;;0.32;0.20;;;22.40;41.90;;;;;;4964649;28;20047;-55
2023/12/24 14:35:12;;;;;;;2.17;1.15;;;22.40;41.90;;;;;;4963162;28;20051;-56
2023/12/24 14:37:40;;;;;;;0.98;0.70;;;22.40;41.90;;;;;;4963967;28;20599;-57
2023/12/24 14:40:09;;;;;;;0.82;0.40;;;22.40;42.20;;;;;;4963405;28;20514;-55
2023/12/24 14:42:37;;;;;;;2.40;0.50;;;22.30;42.20;;;;;;4961097;28;20058;-56
2023/12/24 14:45:04;;;;;;;0.45;0.32;;;22.20;42.30;;;;;;4969919;28;20047;-56
2023/12/24 14:47:32;;;;;;;2.03;0.85;;;22.20;42.40;;;;;;4964754;28;20058;-56
2023/12/24 14:49:59;;;;;;;13.32;2.08;;;22.10;42.60;;;;;;4966711;28;20046;-57
2023/12/24 14:52:29;;;;;;;5.55;1.00;;;22.00;43.00;;;;;;4963332;28;20435;-53
2023/12/24 14:54:57;;;;;;;19.83;1.60;;;22.00;43.00;;;;;;4958714;28;20052;-59
2023/12/24 14:57:25;;;;;;;8.32;1.15;;;21.90;43.10;;;;;;4964125;28;20054;-57
2023/12/24 14:59:54;;;;;;;8.55;1.40;;;22.00;43.10;;;;;;4959908;28;20055;-60
2023/12/24 15:02:21;;;;;;;4.75;0.73;;;22.10;43.30;;;;;;4958522;28;20055;-60
2023/12/24 15:04:49;;;;;;;13.93;1.00;;;22.10;43.40;;;;;;4961714;28;20054;-59
2023/12/24 15:07:16;;;;;;;4.80;0.68;;;22.20;43.50;;;;;;4960403;28;20061;-61
2023/12/24 15:09:45;;;;;;;6.68;0.95;;;22.20;43.60;;;;;;4960722;28;20066;-58
2023/12/24 15:12:13;;;;;;;12.00;1.20;;;22.30;43.60;;;;;;4965317;28;20500;-59
2023/12/24 15:14:42;;;;;;;4.45;0.75;;;22.40;43.70;;;;;;4965649;28;20062;-61
2023/12/24 15:17:13;;;;;;;7.75;0.82;;;22.50;43.70;;;;;;4972491;28;20165;-61
2023/12/24 15:19:40;;;;;;;3.35;0.60;;;22.60;43.60;;;;;;4968067;28;20503;-55
2023/12/24 15:22:07;;;;;;;3.70;0.85;;;22.60;43.50;;;;;;4965343;28;20082;-58
2023/12/24 15:24:35;;;;;;;11.68;1.30;;;22.70;43.50;;;;;;4958823;28;20132;-56
2023/12/24 15:27:04;;;;;;;9.05;0.70;;;22.70;43.30;;;;;;4967825;28;20077;-56
2023/12/24 15:29:32;;;;;;;1.98;0.60;;;22.80;43.30;;;;;;4966814;28;20078;-56
2023/12/24 15:32:00;;;;;;;4.05;0.47;;;22.80;43.20;;;;;;4961285;28;20522;-57
2023/12/24 15:34:27;;;;;;;0.45;0.40;;;22.90;43.10;;;;;;4964015;28;20415;-57
2023/12/24 15:43:44;;;;;;;0.82;0.55;;;23.10;42.70;;;;;;4970177;28;20403;-57
2023/12/24 15:46:12;;;;;;;2.13;0.80;;;23.10;43.00;;;;;;4963563;28;20059;-56
2023/12/24 15:48:39;;;;;;;3.30;0.77;;;23.10;43.00;;;;;;4963821;28;20093;-57
2023/12/24 15:51:07;;;;;;;0.77;0.55;;;23.00;42.80;;;;;;4964716;28;20062;-57
2023/12/24 15:53:34;;;;;;;2.80;0.57;;;23.00;42.80;;;;;;4965685;28;20514;-56
2023/12/24 15:56:02;;;;;;;4.43;0.68;;;23.00;42.70;;;;;;4965550;28;20042;-52
2023/12/24 15:58:30;;;;;;;1.52;0.40;;;23.00;42.80;;;;;;4967867;28;20054;-55
2023/12/24 16:01:00;;;;;;;4.15;0.45;;;23.00;42.80;;;;;;4966536;28;20047;-53
2023/12/24 16:03:27;;;;;;;3.38;0.73;;;23.00;42.80;;;;;;4963621;28;20250;-57
2023/12/24 16:05:55;;;;;;;1.98;0.50;;;23.00;42.80;;;;;;4962794;28;20054;-52